sensor_id;sensor_type;location;lat;lon;timestamp;pressure;altitude;pressure_sealevel;temperature;humidity
22662;BME280;11497;52.222;21.246;2024-01-15T00:00:06;98249.94;;;0.03;89.66
22662;BME280;11497;52.222;21.246;2024-01-15T00:02:40;98249.09;;;0.01;89.39
22662;BME280;11497;52.222;21.246;2024-01-15T00:05:08;98242.38;;;0.03;89.83
22662;BME280;11497;52.222;21.246;2024-01-15T00:07:36;98235.63;;;0.03;89.49
22662;BME280;11497;52.222;21.246;2024-01-15T00:10:04;98236.53;;;0.10;89.06
22662;BME280;11497;52.222;21.246;2024-01-15T00:12:33;98228.88;;;0.02;89.05
22662;BME280;11497;52.222;21.246;2024-01-15T00:15:01;98214.59;;;0.10;88.61
22662;BME280;11497;52.222;21.246;2024-01-15T00:17:29;98220.47;;;0.06;88.88
22662;BME280;11497;52.222;21.246;2024-01-15T00:19:57;98216.34;;;0.13;88.51
22662;BME280;11497;52.222;21.246;2024-01-15T00:22:26;98210.44;;;0.15;87.96
22662;BME280;11497;52.222;21.246;2024-01-15T00:24:56;98205.34;;;0.11;88.07
22662;BME280;11497;52.222;21.246;2024-01-15T00:27:24;98201.91;;;0.04;88.23
22662;BME280;11497;52.222;21.246;2024-01-15T00:29:52;98199.34;;;0.01;88.78
22662;BME280;11497;52.222;21.246;2024-01-15T00:32:21;98187.50;;;-0.05;89.11
22662;BME280;11497;52.222;21.246;2024-01-15T00:34:50;98189.16;;;-0.04;88.54
22662;BME280;11497;52.222;21.246;2024-01-15T00:37:19;98182.47;;;-0.02;89.07
22662;BME280;11497;52.222;21.246;2024-01-15T00:39:47;98175.75;;;0.02;89.12
22662;BME280;11497;52.222;21.246;2024-01-15T00:42:15;98180.81;;;0.01;88.84
22662;BME280;11497;52.222;21.246;2024-01-15T00:44:43;98175.75;;;0.05;88.83
22662;BME280;11497;52.222;21.246;2024-01-15T00:47:11;98171.56;;;0.04;88.61
22662;BME280;11497;52.222;21.246;2024-01-15T00:49:39;98160.59;;;0.02;88.95
22662;BME280;11497;52.222;21.246;2024-01-15T00:52:07;98163.06;;;-0.01;88.77
22662;BME280;11497;52.222;21.246;2024-01-15T00:54:35;98160.53;;;-0.01;89.18
22662;BME280;11497;52.222;21.246;2024-01-15T00:57:04;98158.84;;;-0.02;89.24
22662;BME280;11497;52.222;21.246;2024-01-15T00:59:32;98151.34;;;0.07;89.12
22662;BME280;11497;52.222;21.246;2024-01-15T01:02:00;98144.56;;;0.03;88.93
22662;BME280;11497;52.222;21.246;2024-01-15T01:04:28;98137.84;;;0.04;89.07
22662;BME280;11497;52.222;21.246;2024-01-15T01:06:56;98132.75;;;0.05;88.64
22662;BME280;11497;52.222;21.246;2024-01-15T01:09:24;98127.72;;;0.07;88.23
22662;BME280;11497;52.222;21.246;2024-01-15T01:11:52;98131.91;;;0.03;88.38
22662;BME280;11497;52.222;21.246;2024-01-15T01:14:20;98126.91;;;0.09;88.87
22662;BME280;11497;52.222;21.246;2024-01-15T01:16:48;98122.66;;;0.07;88.58
22662;BME280;11497;52.222;21.246;2024-01-15T01:19:16;98118.38;;;-0.02;89.10
22662;BME280;11497;52.222;21.246;2024-01-15T01:21:45;98120.94;;;0.03;88.73
22662;BME280;11497;52.222;21.246;2024-01-15T01:24:12;98114.16;;;-0.05;89.11
22662;BME280;11497;52.222;21.246;2024-01-15T01:26:41;98115.78;;;-0.10;89.42
22662;BME280;11497;52.222;21.246;2024-01-15T01:29:08;98115.75;;;-0.13;89.41
22662;BME280;11497;52.222;21.246;2024-01-15T01:31:43;98109.88;;;-0.09;89.41
22662;BME280;11497;52.222;21.246;2024-01-15T01:34:15;98103.94;;;-0.12;89.62
22662;BME280;11497;52.222;21.246;2024-01-15T01:36:44;98104.78;;;-0.15;90.06
22662;BME280;11497;52.222;21.246;2024-01-15T01:39:12;98098.03;;;-0.14;89.89
22662;BME280;11497;52.222;21.246;2024-01-15T01:41:40;98097.19;;;-0.15;89.77
22662;BME280;11497;52.222;21.246;2024-01-15T01:44:08;98094.72;;;-0.10;90.29
22662;BME280;11497;52.222;21.246;2024-01-15T01:46:37;98089.59;;;-0.16;90.09
22662;BME280;11497;52.222;21.246;2024-01-15T01:49:09;98092.06;;;-0.21;90.36
22662;BME280;11497;52.222;21.246;2024-01-15T01:51:38;98091.25;;;-0.20;90.54
22662;BME280;11497;52.222;21.246;2024-01-15T01:54:08;98087.88;;;-0.22;90.57
22662;BME280;11497;52.222;21.246;2024-01-15T01:56:40;98080.28;;;-0.21;90.77
22662;BME280;11497;52.222;21.246;2024-01-15T01:59:10;98082.06;;;-0.12;90.36
22662;BME280;11497;52.222;21.246;2024-01-15T02:01:39;98075.28;;;-0.14;90.26
22662;BME280;11497;52.222;21.246;2024-01-15T02:04:07;98073.53;;;-0.22;90.13
22662;BME280;11497;52.222;21.246;2024-01-15T02:06:35;98074.41;;;-0.18;90.55
22662;BME280;11497;52.222;21.246;2024-01-15T02:09:04;98070.16;;;-0.22;90.21
22662;BME280;11497;52.222;21.246;2024-01-15T02:11:33;98061.81;;;-0.13;90.47
22662;BME280;11497;52.222;21.246;2024-01-15T02:14:01;98066.00;;;-0.17;90.50
22662;BME280;11497;52.222;21.246;2024-01-15T02:16:29;98060.06;;;-0.21;90.16
22662;BME280;11497;52.222;21.246;2024-01-15T02:18:57;98049.88;;;-0.27;90.40
22662;BME280;11497;52.222;21.246;2024-01-15T02:21:25;98055.81;;;-0.25;90.18
22662;BME280;11497;52.222;21.246;2024-01-15T02:23:56;98052.47;;;-0.19;90.36
22662;BME280;11497;52.222;21.246;2024-01-15T02:26:24;98050.81;;;-0.18;90.24
22662;BME280;11497;52.222;21.246;2024-01-15T02:28:52;98052.50;;;-0.17;90.60
22662;BME280;11497;52.222;21.246;2024-01-15T02:31:20;98048.25;;;-0.20;90.50
22662;BME280;11497;52.222;21.246;2024-01-15T02:33:48;98044.03;;;-0.21;90.34
22662;BME280;11497;52.222;21.246;2024-01-15T02:36:16;98036.47;;;-0.20;90.18
22662;BME280;11497;52.222;21.246;2024-01-15T02:38:44;98043.22;;;-0.18;90.46
22662;BME280;11497;52.222;21.246;2024-01-15T02:41:12;98039.84;;;-0.16;90.41
22662;BME280;11497;52.222;21.246;2024-01-15T02:43:41;98033.13;;;-0.14;89.93
22662;BME280;11497;52.222;21.246;2024-01-15T02:46:09;98028.88;;;-0.20;89.89
22662;BME280;11497;52.222;21.246;2024-01-15T02:48:37;98027.25;;;-0.13;89.89
22662;BME280;11497;52.222;21.246;2024-01-15T02:51:05;98023.91;;;-0.12;89.58
22662;BME280;11497;52.222;21.246;2024-01-15T02:53:33;98008.72;;;-0.12;89.85
22662;BME280;11497;52.222;21.246;2024-01-15T02:56:01;98010.38;;;-0.12;89.51
22662;BME280;11497;52.222;21.246;2024-01-15T02:58:29;98004.50;;;-0.13;89.85
22662;BME280;11497;52.222;21.246;2024-01-15T03:00:57;98006.16;;;-0.16;89.72
22662;BME280;11497;52.222;21.246;2024-01-15T03:03:25;97990.16;;;-0.15;89.77
22662;BME280;11497;52.222;21.246;2024-01-15T03:05:54;97989.31;;;-0.13;89.19
22662;BME280;11497;52.222;21.246;2024-01-15T03:08:22;97986.81;;;-0.11;88.98
22662;BME280;11497;52.222;21.246;2024-01-15T03:10:50;97985.13;;;-0.11;88.87
22662;BME280;11497;52.222;21.246;2024-01-15T03:13:18;97978.41;;;-0.10;88.53
22662;BME280;11497;52.222;21.246;2024-01-15T03:15:47;97980.94;;;-0.04;88.75
22662;BME280;11497;52.222;21.246;2024-01-15T03:18:15;97969.94;;;-0.11;88.68
22662;BME280;11497;52.222;21.246;2024-01-15T03:20:43;97959.00;;;-0.11;88.46
22662;BME280;11497;52.222;21.246;2024-01-15T03:23:12;97955.59;;;-0.16;88.41
22662;BME280;11497;52.222;21.246;2024-01-15T03:25:40;97962.28;;;-0.22;88.39
22662;BME280;11497;52.222;21.246;2024-01-15T03:28:08;97956.44;;;-0.14;88.80
22662;BME280;11497;52.222;21.246;2024-01-15T03:30:36;97951.31;;;-0.24;88.86
22662;BME280;11497;52.222;21.246;2024-01-15T03:33:04;97953.03;;;-0.18;89.01
22662;BME280;11497;52.222;21.246;2024-01-15T03:35:33;97952.22;;;-0.15;88.73
22662;BME280;11497;52.222;21.246;2024-01-15T03:38:00;97937.84;;;-0.21;89.03
22662;BME280;11497;52.222;21.246;2024-01-15T03:40:28;97935.31;;;-0.21;89.66
22662;BME280;11497;52.222;21.246;2024-01-15T03:42:56;97935.31;;;-0.26;89.17
22662;BME280;11497;52.222;21.246;2024-01-15T03:45:24;97938.59;;;-0.36;89.69
22662;BME280;11497;52.222;21.246;2024-01-15T03:47:52;97933.47;;;-0.45;90.45
22662;BME280;11497;52.222;21.246;2024-01-15T03:50:20;97938.50;;;-0.47;90.35
22662;BME280;11497;52.222;21.246;2024-01-15T03:52:48;97941.03;;;-0.47;90.93
22662;BME280;11497;52.222;21.246;2024-01-15T03:55:16;97937.59;;;-0.53;90.93
22662;BME280;11497;52.222;21.246;2024-01-15T03:57:44;97926.75;;;-0.42;90.88
22662;BME280;11497;52.222;21.246;2024-01-15T04:00:14;97923.34;;;-0.50;91.00
22662;BME280;11497;52.222;21.246;2024-01-15T04:02:41;97911.56;;;-0.42;90.82
22662;BME280;11497;52.222;21.246;2024-01-15T04:05:10;97914.09;;;-0.43;90.97
22662;BME280;11497;52.222;21.246;2024-01-15T04:07:37;97911.53;;;-0.49;90.83
22662;BME280;11497;52.222;21.246;2024-01-15T04:10:06;97902.25;;;-0.55;90.92
22662;BME280;11497;52.222;21.246;2024-01-15T04:12:33;97900.53;;;-0.58;91.08
22662;BME280;11497;52.222;21.246;2024-01-15T04:15:02;97903.03;;;-0.59;91.16
22662;BME280;11497;52.222;21.246;2024-01-15T04:17:30;97890.47;;;-0.53;91.28
22662;BME280;11497;52.222;21.246;2024-01-15T04:19:58;97887.16;;;-0.43;91.10
22662;BME280;11497;52.222;21.246;2024-01-15T04:22:26;97884.56;;;-0.50;90.94
22662;BME280;11497;52.222;21.246;2024-01-15T04:24:54;97882.91;;;-0.50;90.96
22662;BME280;11497;52.222;21.246;2024-01-15T04:27:22;97870.25;;;-0.47;90.98
22662;BME280;11497;52.222;21.246;2024-01-15T04:29:50;97864.34;;;-0.50;90.74
22662;BME280;11497;52.222;21.246;2024-01-15T04:32:18;97858.44;;;-0.52;91.14
22662;BME280;11497;52.222;21.246;2024-01-15T04:34:46;97858.47;;;-0.48;90.66
22662;BME280;11497;52.222;21.246;2024-01-15T04:37:14;97853.44;;;-0.48;90.85
22662;BME280;11497;52.222;21.246;2024-01-15T04:39:42;97846.66;;;-0.49;90.92
22662;BME280;11497;52.222;21.246;2024-01-15T04:42:10;97843.31;;;-0.49;90.55
22662;BME280;11497;52.222;21.246;2024-01-15T04:44:38;97843.31;;;-0.48;90.42
22662;BME280;11497;52.222;21.246;2024-01-15T04:47:06;97842.47;;;-0.47;90.61
22662;BME280;11497;52.222;21.246;2024-01-15T04:49:34;97838.25;;;-0.51;90.49
22662;BME280;11497;52.222;21.246;2024-01-15T04:52:02;97834.88;;;-0.50;90.29
22662;BME280;11497;52.222;21.246;2024-01-15T04:54:30;97840.78;;;-0.49;90.46
22662;BME280;11497;52.222;21.246;2024-01-15T04:56:58;97822.25;;;-0.50;90.50
22662;BME280;11497;52.222;21.246;2024-01-15T04:59:26;97833.22;;;-0.48;90.28
22662;BME280;11497;52.222;21.246;2024-01-15T05:01:54;97829.03;;;-0.44;89.91
22662;BME280;11497;52.222;21.246;2024-01-15T05:04:23;97828.16;;;-0.43;89.56
22662;BME280;11497;52.222;21.246;2024-01-15T05:06:53;97823.09;;;-0.48;89.87
22662;BME280;11497;52.222;21.246;2024-01-15T05:09:21;97816.31;;;-0.52;89.73
22662;BME280;11497;52.222;21.246;2024-01-15T05:11:49;97823.97;;;-0.41;89.71
22662;BME280;11497;52.222;21.246;2024-01-15T05:14:17;97811.34;;;-0.43;89.40
22662;BME280;11497;52.222;21.246;2024-01-15T05:16:48;97824.78;;;-0.47;89.79
22662;BME280;11497;52.222;21.246;2024-01-15T05:19:17;97810.50;;;-0.45;89.72
22662;BME280;11497;52.222;21.246;2024-01-15T05:21:47;97813.00;;;-0.43;89.95
22662;BME280;11497;52.222;21.246;2024-01-15T05:24:15;97808.84;;;-0.35;89.75
22662;BME280;11497;52.222;21.246;2024-01-15T05:26:43;97815.56;;;-0.37;88.86
22662;BME280;11497;52.222;21.246;2024-01-15T05:29:11;97814.69;;;-0.42;88.99
22662;BME280;11497;52.222;21.246;2024-01-15T05:31:39;97823.13;;;-0.42;89.02
22662;BME280;11497;52.222;21.246;2024-01-15T05:34:07;97814.69;;;-0.42;89.07
22662;BME280;11497;52.222;21.246;2024-01-15T05:36:35;97814.72;;;-0.34;89.26
22662;BME280;11497;52.222;21.246;2024-01-15T05:39:03;97812.22;;;-0.36;88.95
22662;BME280;11497;52.222;21.246;2024-01-15T05:41:31;97807.13;;;-0.39;88.72
22662;BME280;11497;52.222;21.246;2024-01-15T05:44:00;97804.63;;;-0.39;88.87
22662;BME280;11497;52.222;21.246;2024-01-15T05:46:28;97803.75;;;-0.38;88.62
22662;BME280;11497;52.222;21.246;2024-01-15T05:48:56;97813.03;;;-0.37;89.37
22662;BME280;11497;52.222;21.246;2024-01-15T05:51:24;97813.06;;;-0.32;88.98
22662;BME280;11497;52.222;21.246;2024-01-15T05:53:52;97808.88;;;-0.29;89.17
22662;BME280;11497;52.222;21.246;2024-01-15T05:56:20;97815.59;;;-0.29;88.91
22662;BME280;11497;52.222;21.246;2024-01-15T05:58:48;97810.56;;;-0.31;88.44
22662;BME280;11497;52.222;21.246;2024-01-15T06:01:16;97809.72;;;-0.27;88.30
22662;BME280;11497;52.222;21.246;2024-01-15T06:03:44;97807.25;;;-0.21;87.83
22662;BME280;11497;52.222;21.246;2024-01-15T06:06:12;97807.22;;;-0.24;87.48
22662;BME280;11497;52.222;21.246;2024-01-15T06:08:40;97802.97;;;-0.26;87.26
22662;BME280;11497;52.222;21.246;2024-01-15T06:11:08;97798.78;;;-0.26;87.64
22662;BME280;11497;52.222;21.246;2024-01-15T06:13:36;97802.19;;;-0.22;87.53
22662;BME280;11497;52.222;21.246;2024-01-15T06:16:15;97797.91;;;-0.34;87.84
22662;BME280;11497;52.222;21.246;2024-01-15T06:18:44;97796.25;;;-0.29;87.26
22662;BME280;11497;52.222;21.246;2024-01-15T06:21:12;97797.03;;;-0.33;87.80
22662;BME280;11497;52.222;21.246;2024-01-15T06:23:42;97786.09;;;-0.35;88.36
22662;BME280;11497;52.222;21.246;2024-01-15T06:26:12;97782.72;;;-0.35;87.55
22662;BME280;11497;52.222;21.246;2024-01-15T06:28:40;97785.25;;;-0.34;88.14
22662;BME280;11497;52.222;21.246;2024-01-15T06:31:08;97782.72;;;-0.34;87.61
22662;BME280;11497;52.222;21.246;2024-01-15T06:33:36;97780.22;;;-0.31;87.71
22662;BME280;11497;52.222;21.246;2024-01-15T06:36:05;97775.19;;;-0.25;87.92
22662;BME280;11497;52.222;21.246;2024-01-15T06:38:33;97769.31;;;-0.22;87.29
22662;BME280;11497;52.222;21.246;2024-01-15T06:41:01;97773.50;;;-0.27;86.96
22662;BME280;11497;52.222;21.246;2024-01-15T06:43:29;97768.41;;;-0.32;87.32
22662;BME280;11497;52.222;21.246;2024-01-15T06:45:57;97774.31;;;-0.28;88.03
22662;BME280;11497;52.222;21.246;2024-01-15T06:48:25;97781.09;;;-0.27;88.05
22662;BME280;11497;52.222;21.246;2024-01-15T06:50:53;97773.50;;;-0.29;87.49
22662;BME280;11497;52.222;21.246;2024-01-15T06:53:21;97769.22;;;-0.34;87.59
22662;BME280;11497;52.222;21.246;2024-01-15T06:55:49;97780.22;;;-0.28;87.44
22662;BME280;11497;52.222;21.246;2024-01-15T06:58:19;97778.56;;;-0.21;87.90
22662;BME280;11497;52.222;21.246;2024-01-15T07:00:46;97777.72;;;-0.23;87.76
22662;BME280;11497;52.222;21.246;2024-01-15T07:03:15;97777.72;;;-0.23;87.25
22662;BME280;11497;52.222;21.246;2024-01-15T07:05:43;97765.91;;;-0.21;87.11
22662;BME280;11497;52.222;21.246;2024-01-15T07:08:11;97767.63;;;-0.18;86.84
22662;BME280;11497;52.222;21.246;2024-01-15T07:10:39;97765.13;;;-0.17;87.05
22662;BME280;11497;52.222;21.246;2024-01-15T07:13:07;97772.66;;;-0.25;86.44
22662;BME280;11497;52.222;21.246;2024-01-15T07:15:35;97769.31;;;-0.21;86.92
22662;BME280;11497;52.222;21.246;2024-01-15T07:18:03;97774.38;;;-0.16;86.05
22662;BME280;11497;52.222;21.246;2024-01-15T07:20:31;97771.00;;;-0.16;86.03
22662;BME280;11497;52.222;21.246;2024-01-15T07:23:00;97765.09;;;-0.22;86.35
22662;BME280;11497;52.222;21.246;2024-01-15T07:25:28;97776.03;;;-0.21;86.52
22662;BME280;11497;52.222;21.246;2024-01-15T07:27:56;97769.31;;;-0.22;86.74
22662;BME280;11497;52.222;21.246;2024-01-15T07:30:24;97760.84;;;-0.23;86.64
22662;BME280;11497;52.222;21.246;2024-01-15T07:32:52;97774.38;;;-0.21;87.36
22662;BME280;11497;52.222;21.246;2024-01-15T07:35:21;97771.84;;;-0.16;87.10
22662;BME280;11497;52.222;21.246;2024-01-15T07:37:49;97776.91;;;-0.21;87.45
22662;BME280;11497;52.222;21.246;2024-01-15T07:40:17;97770.16;;;-0.20;87.52
22662;BME280;11497;52.222;21.246;2024-01-15T07:42:45;97763.41;;;-0.18;87.22
22662;BME280;11497;52.222;21.246;2024-01-15T07:45:13;97770.97;;;-0.27;87.70
22662;BME280;11497;52.222;21.246;2024-01-15T07:47:41;97766.69;;;-0.34;88.08
22662;BME280;11497;52.222;21.246;2024-01-15T07:50:09;97775.16;;;-0.32;88.51
22662;BME280;11497;52.222;21.246;2024-01-15T07:52:38;97777.66;;;-0.35;88.76
22662;BME280;11497;52.222;21.246;2024-01-15T07:55:06;97775.16;;;-0.32;88.59
22662;BME280;11497;52.222;21.246;2024-01-15T07:57:34;97770.09;;;-0.35;89.11
22662;BME280;11497;52.222;21.246;2024-01-15T08:00:04;97783.56;;;-0.33;89.23
22662;BME280;11497;52.222;21.246;2024-01-15T08:02:37;97789.50;;;-0.28;88.80
22662;BME280;11497;52.222;21.246;2024-01-15T08:05:05;97783.63;;;-0.26;89.30
22662;BME280;11497;52.222;21.246;2024-01-15T08:07:33;97780.28;;;-0.18;89.21
22662;BME280;11497;52.222;21.246;2024-01-15T08:10:01;97765.13;;;-0.15;88.47
22662;BME280;11497;52.222;21.246;2024-01-15T08:12:30;97765.09;;;-0.12;88.84
22662;BME280;11497;52.222;21.246;2024-01-15T08:14:58;97764.31;;;-0.08;88.82
22662;BME280;11497;52.222;21.246;2024-01-15T08:17:26;97748.25;;;-0.16;88.18
22662;BME280;11497;52.222;21.246;2024-01-15T08:19:57;97758.38;;;-0.13;88.40
22662;BME280;11497;52.222;21.246;2024-01-15T08:22:25;97755.88;;;-0.03;87.86
22662;BME280;11497;52.222;21.246;2024-01-15T08:24:56;97767.63;;;-0.18;87.81
22662;BME280;11497;52.222;21.246;2024-01-15T08:27:24;97769.34;;;-0.11;87.81
22662;BME280;11497;52.222;21.246;2024-01-15T08:29:52;97774.41;;;-0.02;87.92
22662;BME280;11497;52.222;21.246;2024-01-15T08:32:20;97766.00;;;0.05;87.51
22662;BME280;11497;52.222;21.246;2024-01-15T08:34:48;97777.84;;;0.09;87.52
22662;BME280;11497;52.222;21.246;2024-01-15T08:37:20;97783.72;;;0.04;87.50
22662;BME280;11497;52.222;21.246;2024-01-15T08:39:48;97776.97;;;-0.01;88.14
22662;BME280;11497;52.222;21.246;2024-01-15T08:42:19;97777.00;;;0.13;87.19
22662;BME280;11497;52.222;21.246;2024-01-15T08:44:46;97776.19;;;0.24;87.04
22662;BME280;11497;52.222;21.246;2024-01-15T08:47:15;97767.78;;;0.42;86.93
22662;BME280;11497;52.222;21.246;2024-01-15T08:49:43;97791.44;;;0.62;86.64
22662;BME280;11497;52.222;21.246;2024-01-15T08:52:13;97778.78;;;0.82;85.49
22662;BME280;11497;52.222;21.246;2024-01-15T08:54:42;97785.53;;;0.96;84.88
22662;BME280;11497;52.222;21.246;2024-01-15T08:57:10;97777.09;;;0.89;82.79
22662;BME280;11497;52.222;21.246;2024-01-15T08:59:39;97769.50;;;0.87;83.33
22662;BME280;11497;52.222;21.246;2024-01-15T09:02:09;97778.81;;;0.91;82.62
22662;BME280;11497;52.222;21.246;2024-01-15T09:04:36;97777.97;;;0.86;82.81
22662;BME280;11497;52.222;21.246;2024-01-15T09:07:04;97781.34;;;0.91;82.39
22662;BME280;11497;52.222;21.246;2024-01-15T09:09:32;97791.44;;;0.71;82.41
22662;BME280;11497;52.222;21.246;2024-01-15T09:12:01;97799.88;;;0.58;83.18
22662;BME280;11497;52.222;21.246;2024-01-15T09:14:29;97797.34;;;0.50;84.42
22662;BME280;11497;52.222;21.246;2024-01-15T09:17:07;97807.47;;;0.63;84.67
22662;BME280;11497;52.222;21.246;2024-01-15T09:19:35;97796.50;;;0.65;84.76
22662;BME280;11497;52.222;21.246;2024-01-15T09:22:04;97799.88;;;0.63;84.79
22662;BME280;11497;52.222;21.246;2024-01-15T09:24:31;97795.66;;;0.52;84.37
22662;BME280;11497;52.222;21.246;2024-01-15T09:26:59;97799.03;;;0.58;84.47
22662;BME280;11497;52.222;21.246;2024-01-15T09:29:27;97790.59;;;0.75;84.32
22662;BME280;11497;52.222;21.246;2024-01-15T09:31:55;97794.00;;;0.88;83.49
22662;BME280;11497;52.222;21.246;2024-01-15T09:34:23;97792.28;;;1.03;82.93
22662;BME280;11497;52.222;21.246;2024-01-15T09:36:52;97785.53;;;1.17;82.11
22662;BME280;11497;52.222;21.246;2024-01-15T09:39:19;97781.28;;;1.27;82.03
22662;BME280;11497;52.222;21.246;2024-01-15T09:41:48;97771.97;;;1.43;81.37
22662;BME280;11497;52.222;21.246;2024-01-15T09:44:16;97770.19;;;1.73;79.11
22662;BME280;11497;52.222;21.246;2024-01-15T09:46:45;97767.47;;;2.13;76.58
22662;BME280;11497;52.222;21.246;2024-01-15T09:49:13;97770.03;;;2.10;75.56
22662;BME280;11497;52.222;21.246;2024-01-15T09:51:42;97775.22;;;1.86;76.13
22662;BME280;11497;52.222;21.246;2024-01-15T09:54:12;97774.41;;;1.77;76.04
22662;BME280;11497;52.222;21.246;2024-01-15T09:56:41;97772.69;;;1.85;76.45
22662;BME280;11497;52.222;21.246;2024-01-15T09:59:10;97763.34;;;1.95;75.93
22662;BME280;11497;52.222;21.246;2024-01-15T10:01:39;97764.81;;;2.36;74.88
22662;BME280;11497;52.222;21.246;2024-01-15T10:04:08;97758.88;;;2.34;74.07
22662;BME280;11497;52.222;21.246;2024-01-15T10:06:36;97753.81;;;2.34;73.30
22662;BME280;11497;52.222;21.246;2024-01-15T10:09:06;97753.06;;;2.21;73.68
22662;BME280;11497;52.222;21.246;2024-01-15T10:11:36;97754.78;;;2.10;74.15
22662;BME280;11497;52.222;21.246;2024-01-15T10:14:05;97756.59;;;1.89;74.74
22662;BME280;11497;52.222;21.246;2024-01-15T10:16:33;97754.91;;;1.90;73.71
22662;BME280;11497;52.222;21.246;2024-01-15T10:19:01;97744.81;;;1.76;74.06
22662;BME280;11497;52.222;21.246;2024-01-15T10:21:32;97755.84;;;1.65;74.78
22662;BME280;11497;52.222;21.246;2024-01-15T10:24:04;97755.00;;;1.66;75.16
22662;BME280;11497;52.222;21.246;2024-01-15T10:26:32;97762.59;;;1.71;74.16
22662;BME280;11497;52.222;21.246;2024-01-15T10:29:01;97757.47;;;1.83;72.86
22662;BME280;11497;52.222;21.246;2024-01-15T10:31:29;97758.38;;;1.67;73.41
22662;BME280;11497;52.222;21.246;2024-01-15T10:34:11;97771.06;;;1.58;73.01
22662;BME280;11497;52.222;21.246;2024-01-15T10:36:40;97753.34;;;1.55;73.00
22662;BME280;11497;52.222;21.246;2024-01-15T10:39:08;97763.50;;;1.47;73.02
22662;BME280;11497;52.222;21.246;2024-01-15T10:41:37;97769.44;;;1.41;73.38
22662;BME280;11497;52.222;21.246;2024-01-15T10:44:04;97768.63;;;1.35;73.44
22662;BME280;11497;52.222;21.246;2024-01-15T10:46:33;97763.50;;;1.41;73.24
22662;BME280;11497;52.222;21.246;2024-01-15T10:49:03;97766.88;;;1.44;73.65
22662;BME280;11497;52.222;21.246;2024-01-15T10:51:32;97771.16;;;1.38;74.46
22662;BME280;11497;52.222;21.246;2024-01-15T10:54:00;97765.22;;;1.40;74.57
22662;BME280;11497;52.222;21.246;2024-01-15T10:56:31;97761.81;;;1.49;74.21
22662;BME280;11497;52.222;21.246;2024-01-15T10:59:00;97755.88;;;1.59;73.54
22662;BME280;11497;52.222;21.246;2024-01-15T11:01:29;97764.25;;;1.77;73.05
22662;BME280;11497;52.222;21.246;2024-01-15T11:03:58;97763.38;;;1.87;72.10
22662;BME280;11497;52.222;21.246;2024-01-15T11:06:28;97762.53;;;1.80;71.68
22662;BME280;11497;52.222;21.246;2024-01-15T11:09:08;97761.69;;;1.84;71.82
22662;BME280;11497;52.222;21.246;2024-01-15T11:11:41;97761.72;;;1.81;71.97
22662;BME280;11497;52.222;21.246;2024-01-15T11:14:09;97763.47;;;1.68;72.52
22662;BME280;11497;52.222;21.246;2024-01-15T11:16:54;97766.00;;;1.58;72.57
22662;BME280;11497;52.222;21.246;2024-01-15T11:19:23;97765.19;;;1.51;72.78
22662;BME280;11497;52.222;21.246;2024-01-15T11:21:52;97755.94;;;1.38;73.09
22662;BME280;11497;52.222;21.246;2024-01-15T11:24:36;97773.69;;;1.27;73.05
22662;BME280;11497;52.222;21.246;2024-01-15T11:27:09;97772.84;;;1.22;74.20
22662;BME280;11497;52.222;21.246;2024-01-15T11:29:37;97753.41;;;1.28;74.12
22662;BME280;11497;52.222;21.246;2024-01-15T11:32:09;97755.09;;;1.33;74.09
22662;BME280;11497;52.222;21.246;2024-01-15T11:34:56;97750.88;;;1.30;73.72
22662;BME280;11497;52.222;21.246;2024-01-15T11:37:56;97747.47;;;1.40;73.18
22662;BME280;11497;52.222;21.246;2024-01-15T11:40:22;97739.81;;;1.56;73.66
22662;BME280;11497;52.222;21.246;2024-01-15T11:42:50;97741.53;;;1.58;73.11
22662;BME280;11497;52.222;21.246;2024-01-15T11:45:21;97727.97;;;1.58;72.98
22662;BME280;11497;52.222;21.246;2024-01-15T11:48:14;97727.16;;;1.53;72.63
22662;BME280;11497;52.222;21.246;2024-01-15T11:50:44;97733.94;;;1.49;72.52
22662;BME280;11497;52.222;21.246;2024-01-15T11:55:53;97723.72;;;1.60;73.32
22662;BME280;11497;52.222;21.246;2024-01-15T11:58:25;97719.56;;;1.48;73.74
22662;BME280;11497;52.222;21.246;2024-01-15T12:00:53;97728.84;;;1.54;73.40
22662;BME280;11497;52.222;21.246;2024-01-15T12:03:23;97726.31;;;1.50;73.18
22662;BME280;11497;52.222;21.246;2024-01-15T12:05:53;97716.16;;;1.55;73.39
22662;BME280;11497;52.222;21.246;2024-01-15T12:08:24;97719.56;;;1.48;74.33
22662;BME280;11497;52.222;21.246;2024-01-15T12:10:52;97724.59;;;1.56;75.59
22662;BME280;11497;52.222;21.246;2024-01-15T12:13:21;97718.59;;;1.78;75.71
22662;BME280;11497;52.222;21.246;2024-01-15T12:15:49;97723.59;;;1.94;74.87
22662;BME280;11497;52.222;21.246;2024-01-15T12:18:18;97722.78;;;1.88;74.98
22662;BME280;11497;52.222;21.246;2024-01-15T12:20:47;97712.69;;;1.73;74.68
22662;BME280;11497;52.222;21.246;2024-01-15T12:23:16;97722.03;;;1.69;74.70
22662;BME280;11497;52.222;21.246;2024-01-15T12:25:45;97725.47;;;1.52;75.40
22662;BME280;11497;52.222;21.246;2024-01-15T12:28:15;97727.97;;;1.55;75.62
22662;BME280;11497;52.222;21.246;2024-01-15T12:30:45;97717.84;;;1.55;75.99
22662;BME280;11497;52.222;21.246;2024-01-15T12:33:17;97714.50;;;1.45;75.44
22662;BME280;11497;52.222;21.246;2024-01-15T12:35:45;97706.97;;;1.26;76.45
22662;BME280;11497;52.222;21.246;2024-01-15T12:38:13;97722.16;;;1.33;76.00
22662;BME280;11497;52.222;21.246;2024-01-15T12:40:40;97717.88;;;1.41;76.49
22662;BME280;11497;52.222;21.246;2024-01-15T12:43:14;97712.84;;;1.30;77.13
22662;BME280;11497;52.222;21.246;2024-01-15T12:45:42;97719.63;;;1.22;77.32
22662;BME280;11497;52.222;21.246;2024-01-15T12:48:11;97723.06;;;1.02;76.88
22662;BME280;11497;52.222;21.246;2024-01-15T12:50:43;97726.44;;;0.87;77.98
22662;BME280;11497;52.222;21.246;2024-01-15T12:53:11;97725.63;;;0.70;79.85
22662;BME280;11497;52.222;21.246;2024-01-15T12:55:39;97726.44;;;0.55;80.73
22662;BME280;11497;52.222;21.246;2024-01-15T12:58:19;97734.06;;;0.53;81.68
22662;BME280;11497;52.222;21.246;2024-01-15T13:00:48;97725.59;;;0.42;81.94
22662;BME280;11497;52.222;21.246;2024-01-15T13:03:16;97731.50;;;0.41;82.74
22662;BME280;11497;52.222;21.246;2024-01-15T13:05:45;97723.09;;;0.62;82.11